Time;durP1;ratioP1;P1;durP2;ratioP2;P2;SDS_P1;SDS_P2;PMS_P1;PMS_P2;Temp;Humidity;BMP_temperature;BMP_pressure;BME280_temperature;BME280_humidity;BME280_pressure;Samples;Min_cycle;Max_cycle;Signal;HPM_P1;HPM_P2
2023/12/12 05:32:55;;;;;;;;;11.75;10.50;;;;;23.19;48.95;100124.53;4997004;28;45372;-81
2023/12/12 05:35:20;;;;;;;;;12.75;10.75;;;;;23.02;48.90;100099.03;4979747;28;45207;-82
2023/12/12 05:37:46;;;;;;;;;11.00;11.00;;;;;23.10;49.07;100111.00;4997264;28;45495;-83
2023/12/12 05:40:14;;;;;;;;;8.50;8.50;;;;;23.12;49.08;100126.22;4996830;28;45315;-83
2023/12/12 05:42:43;;;;;;;;;12.50;12.00;;;;;23.05;49.27;100111.50;4979733;28;45319;-84
2023/12/12 05:45:09;;;;;;;;;15.00;15.00;;;;;22.94;48.98;100085.31;4979185;28;45516;-83
2023/12/12 05:47:35;;;;;;;;;12.75;11.50;;;;;23.08;49.43;100116.63;4996602;28;45572;-84
2023/12/12 05:50:00;;;;;;;;;8.50;8.50;;;;;23.04;49.38;100128.06;4997738;28;45242;-83
2023/12/12 05:52:25;;;;;;;;;12.00;10.00;;;;;22.92;49.48;100113.84;4997732;28;45356;-85
2023/12/12 05:54:52;;;;;;;;;16.00;16.00;;;;;22.88;49.79;100105.09;4979768;28;45893;-83
2023/12/12 05:57:17;;;;;;;;;15.25;13.25;;;;;22.86;49.71;100106.31;4997130;28;45252;-83
2023/12/12 05:59:43;;;;;;;;;9.50;9.50;;;;;22.88;49.59;100098.81;4996646;28;45189;-83
2023/12/12 06:02:08;;;;;;;;;22.50;13.00;;;;;22.80;49.51;100083.19;4997512;28;45280;-84
2023/12/12 06:04:35;;;;;;;;;10.75;10.25;;;;;22.77;49.47;100050.75;4997089;28;45356;-87
2023/12/12 06:07:01;;;;;;;;;9.50;9.50;;;;;23.07;49.32;100103.13;4984959;28;46198;-81
2023/12/12 06:09:28;;;;;;;;;12.75;12.75;;;;;22.85;49.99;100094.50;5001300;28;46282;-80
2023/12/12 06:11:53;;;;;;;;;17.50;15.00;;;;;22.80;49.76;100091.41;5001826;28;45421;-82
2023/12/12 06:14:18;;;;;;;;;15.00;15.00;;;;;22.72;49.99;100076.81;5000707;28;45293;-80
2023/12/12 06:16:44;;;;;;;;;12.25;10.50;;;;;22.62;49.76;100066.03;4996025;28;45524;-82
2023/12/12 06:19:09;;;;;;;;;14.25;11.75;;;;;22.76;50.11;100091.91;4995643;28;46571;-81
2023/12/12 06:21:34;;;;;;;;;9.25;9.25;;;;;22.76;49.90;100084.56;4996003;28;45393;-79
2023/12/12 06:24:03;;;;;;;;;10.75;10.50;;;;;22.78;50.09;100065.28;4996305;28;45258;-82
2023/12/12 06:26:32;;;;;;;;;11.00;11.00;;;;;22.80;49.67;100061.34;4980388;28;46595;-74
2023/12/12 06:28:57;;;;;;;;;10.00;10.00;;;;;22.91;50.07;100080.19;4979350;28;46339;-78
2023/12/12 06:31:23;;;;;;;;;11.50;11.50;;;;;22.76;50.12;100070.91;5004741;28;45515;-78
2023/12/12 06:33:49;;;;;;;;;11.75;10.25;;;;;22.88;49.99;100080.50;5016118;28;45305;-78
2023/12/12 06:36:14;;;;;;;;;10.50;10.25;;;;;22.76;49.62;100050.91;4998143;28;47448;-78
2023/12/12 06:38:40;;;;;;;;;9.75;9.75;;;;;22.94;49.65;100076.25;5014909;28;45385;-77
2023/12/12 06:41:05;;;;;;;;;10.25;7.50;;;;;22.93;49.71;100078.13;5016126;28;45249;-78
2023/12/12 06:43:31;;;;;;;;;9.00;9.00;;;;;22.79;49.50;100051.44;5015339;28;54063;-78
2023/12/12 06:45:57;;;;;;;;;9.50;9.50;;;;;22.88;49.69;100071.47;5015312;28;45278;-77
2023/12/12 06:48:22;;;;;;;;;8.00;8.00;;;;;22.89;49.73;100087.69;5015079;28;45475;-78
2023/12/12 06:50:48;;;;;;;;;11.75;10.00;;;;;22.87;50.05;100077.94;5015225;28;45233;-78
2023/12/12 06:53:13;;;;;;;;;7.25;7.25;;;;;22.82;49.90;100064.75;5015069;28;45198;-79
2023/12/12 06:55:38;;;;;;;;;9.50;8.00;;;;;22.87;49.91;100069.75;4997006;28;47255;-77
2023/12/12 06:58:04;;;;;;;;;10.75;10.75;;;;;22.82;50.20;100074.84;5010548;28;46243;-77
2023/12/12 07:00:29;;;;;;;;;10.00;8.75;;;;;22.82;50.15;100074.84;5017331;28;54548;-79
2023/12/12 07:02:55;;;;;;;;;8.00;8.00;;;;;22.62;50.30;100090.63;5024511;28;45336;-80
2023/12/12 07:05:21;;;;;;;;;9.75;9.75;;;;;22.69;50.22;100099.03;5027355;28;45454;-79
2023/12/12 07:07:47;;;;;;;;;9.25;9.25;;;;;22.77;50.43;100096.34;5016162;28;45594;-78
2023/12/12 07:10:13;;;;;;;;;9.50;9.50;;;;;22.67;50.23;100093.72;5015084;28;45325;-80
2023/12/12 07:12:38;;;;;;;;;12.00;10.00;;;;;22.61;50.70;100100.69;5015027;28;45396;-79
2023/12/12 07:15:04;;;;;;;;;11.50;11.25;;;;;22.67;50.69;100104.63;5015331;28;45513;-80
2023/12/12 07:17:29;;;;;;;;;6.75;6.75;;;;;22.74;49.99;100102.09;5014496;28;46316;-79
2023/12/12 07:19:55;;;;;;;;;7.50;7.50;;;;;22.58;50.66;100098.28;5014545;28;45265;-78
2023/12/12 07:22:21;;;;;;;;;7.75;6.50;;;;;22.56;50.54;100094.00;4995449;28;45578;-77
2023/12/12 07:24:47;;;;;;;;;7.25;7.25;;;;;22.59;50.47;100110.94;5013670;28;46823;-78
2023/12/12 07:27:13;;;;;;;;;6.25;6.25;;;;;22.57;50.19;100084.78;5014468;28;45881;-79
2023/12/12 07:29:38;;;;;;;;;8.00;6.75;;;;;22.51;50.57;100102.69;5014833;28;45259;-79
2023/12/12 07:32:04;;;;;;;;;5.50;4.75;;;;;22.63;50.43;100104.09;5014055;28;45478;-80
2023/12/12 07:34:29;;;;;;;;;4.25;4.25;;;;;22.68;50.25;100091.84;5014509;28;45582;-79
2023/12/12 07:36:54;;;;;;;;;5.00;4.75;;;;;22.71;50.50;100111.50;5019708;28;46562;-79
2023/12/12 07:39:20;;;;;;;;;2.75;2.75;;;;;22.67;50.57;100103.78;5015140;28;45305;-78
2023/12/12 07:41:45;;;;;;;;;2.50;2.50;;;;;22.62;50.33;100087.91;5014617;28;45642;-79
2023/12/12 07:44:11;;;;;;;;;3.50;3.50;;;;;22.57;50.41;100073.84;5014849;28;45585;-80
2023/12/12 07:46:40;;;;;;;;;4.00;4.00;;;;;22.49;50.25;100071.06;5014250;28;45373;-79
2023/12/12 07:49:06;;;;;;;;;4.25;3.00;;;;;22.75;50.12;100101.13;5013632;28;45250;-79
2023/12/12 07:51:32;;;;;;;;;5.75;5.75;;;;;22.64;50.53;100094.03;5014136;28;45282;-79
2023/12/12 07:54:01;;;;;;;;;2.25;2.25;;;;;22.53;50.94;100102.53;4996348;28;46270;-79
2023/12/12 07:56:26;;;;;;;;;3.00;3.00;;;;;22.47;50.67;100078.56;5014135;28;45415;-78
2023/12/12 07:58:52;;;;;;;;;3.00;2.00;;;;;22.53;50.48;100088.88;5014017;28;47621;-79
2023/12/12 08:01:17;;;;;;;;;5.00;3.25;;;;;22.57;50.72;100107.50;5013493;28;54888;-78
2023/12/12 08:03:42;;;;;;;;;1.00;1.00;;;;;22.56;49.88;100088.53;5013694;28;59094;-79
2023/12/12 08:06:08;;;;;;;;;1.00;1.00;;;;;22.49;50.27;100087.47;4996183;28;48594;-81
2023/12/12 08:08:34;;;;;;;;;2.00;2.00;;;;;22.67;49.98;100090.97;5014147;28;45285;-78
2023/12/12 08:11:00;;;;;;;;;1.00;1.00;;;;;22.32;50.35;100102.91;4996520;28;45412;-78
2023/12/12 08:13:26;;;;;;;;;1.75;1.75;;;;;22.69;50.00;100088.09;5014153;28;45355;-78
2023/12/12 08:15:51;;;;;;;;;1.00;1.00;;;;;22.62;49.87;100083.28;5013941;28;45221;-80
2023/12/12 08:18:16;;;;;;;;;1.00;1.00;;;;;22.80;49.57;100074.13;4996190;28;45391;-78
2023/12/12 08:20:42;;;;;;;;;1.25;1.25;;;;;22.87;49.24;100058.81;5014099;28;45603;-78
2023/12/12 08:23:07;;;;;;;;;2.25;1.00;;;;;22.93;49.43;100078.13;5014143;28;45310;-78
2023/12/12 08:25:32;;;;;;;;;1.25;1.25;;;;;22.80;49.42;100055.00;5013764;28;45254;-78
2023/12/12 08:27:58;;;;;;;;;1.00;1.00;;;;;23.00;49.10;100073.72;5014357;28;45211;-78
2023/12/12 08:30:23;;;;;;;;;2.00;2.00;;;;;23.01;48.96;100083.63;4996030;28;45206;-78
2023/12/12 08:32:49;;;;;;;;;1.00;1.00;;;;;23.13;48.92;100080.59;5013417;28;45507;-78
2023/12/12 08:35:14;;;;;;;;;1.25;1.25;;;;;23.05;48.94;100064.16;5013312;28;60529;-79
2023/12/12 08:37:40;;;;;;;;;1.75;1.75;;;;;23.09;48.67;100079.19;5013933;28;45558;-78
2023/12/12 08:40:06;;;;;;;;;2.00;2.00;;;;;23.04;48.67;100067.94;5013838;28;45313;-78
2023/12/12 08:42:32;;;;;;;;;3.00;3.00;;;;;23.23;49.12;100093.06;5014008;28;46533;-78
2023/12/12 08:44:57;;;;;;;;;1.50;1.50;;;;;23.21;48.67;100080.63;5014044;28;46321;-78
2023/12/12 08:47:23;;;;;;;;;1.75;1.75;;;;;23.20;48.57;100090.69;5013809;28;45471;-78
2023/12/12 08:49:48;;;;;;;;;1.00;1.00;;;;;23.20;48.45;100092.56;5013869;28;45431;-79
2023/12/12 08:52:14;;;;;;;;;2.75;2.00;;;;;23.04;48.95;100093.38;5013821;28;45544;-78
2023/12/12 08:54:44;;;;;;;;;1.75;1.75;;;;;23.06;48.39;100085.00;5013607;28;46082;-77
2023/12/12 08:57:10;;;;;;;;;0.00;0.00;;;;;22.78;49.21;100084.41;5013829;28;45651;-78
2023/12/12 08:59:38;;;;;;;;;0.50;0.50;;;;;22.94;48.65;100085.31;4995661;28;45470;-79
2023/12/12 09:02:03;;;;;;;;;1.00;1.00;;;;;23.08;48.62;100097.50;5015878;28;45564;-78
2023/12/12 09:04:29;;;;;;;;;1.00;1.00;;;;;23.18;48.37;100103.69;5016426;28;46511;-79
2023/12/12 09:06:54;;;;;;;;;0.50;0.50;;;;;23.13;48.22;100092.41;5017059;28;45359;-77
2023/12/12 09:09:19;;;;;;;;;2.25;1.00;;;;;23.13;48.48;100080.59;4998893;28;51781;-79
2023/12/12 09:11:46;;;;;;;;;1.50;0.75;;;;;23.18;48.29;100070.84;5017033;28;45537;-79
2023/12/12 09:14:12;;;;;;;;;1.00;1.00;;;;;23.40;47.97;100083.88;5004460;28;47165;-77
2023/12/12 09:16:37;;;;;;;;;2.00;0.25;;;;;23.32;47.71;100085.75;5016929;28;45200;-79
2023/12/12 09:19:02;;;;;;;;;1.00;1.00;;;;;23.22;48.18;100085.06;4998258;28;46577;-78
2023/12/12 09:21:28;;;;;;;;;0.00;0.00;;;;;22.82;48.82;100077.56;5016471;28;61923;-76
2023/12/12 09:23:53;;;;;;;;;0.00;0.00;;;;;23.23;48.51;100084.00;5015855;28;57122;-78
2023/12/12 09:26:18;;;;;;;;;0.00;0.00;;;;;23.15;48.30;100082.13;5016830;28;45453;-79
2023/12/12 09:28:44;;;;;;;;;2.00;0.00;;;;;23.24;48.05;100088.47;5016763;28;45482;-79
2023/12/12 09:31:11;;;;;;;;;1.00;1.00;;;;;23.01;48.41;100086.38;5016582;28;45262;-78
2023/12/12 09:33:37;;;;;;;;;0.75;0.75;;;;;23.10;48.20;100067.25;4997989;28;47219;-79
2023/12/12 09:36:03;;;;;;;;;2.00;0.00;;;;;23.21;48.42;100081.47;5016568;28;45658;-78
2023/12/12 09:38:29;;;;;;;;;0.00;0.00;;;;;22.95;49.39;100092.50;5016241;28;45369;-78
2023/12/12 09:40:55;;;;;;;;;1.00;1.00;;;;;23.14;49.35;100085.88;5016622;28;45385;-79
2023/12/12 09:43:26;;;;;;;;;1.75;1.75;;;;;23.09;49.45;100057.34;5016405;28;45976;-78
2023/12/12 09:45:57;;;;;;;;;0.75;0.75;;;;;22.86;50.61;100089.91;5016837;28;45434;-78
2023/12/12 09:48:23;;;;;;;;;1.75;1.00;;;;;22.83;50.01;100049.22;5016126;28;45431;-79
2023/12/12 09:50:49;;;;;;;;;1.00;1.00;;;;;22.92;50.29;100086.50;5016458;28;45337;-80
2023/12/12 09:53:15;;;;;;;;;0.75;0.50;;;;;22.91;50.77;100074.72;5016090;28;46044;-78
2023/12/12 09:55:41;;;;;;;;;1.00;1.00;;;;;22.91;50.79;100074.72;5016254;28;45553;-79
2023/12/12 09:58:07;;;;;;;;;1.00;1.00;;;;;23.06;50.11;100076.78;5015959;28;45423;-78
2023/12/12 10:00:32;;;;;;;;;1.50;1.00;;;;;23.07;49.73;100053.91;4997858;28;46565;-78
2023/12/12 10:03:04;;;;;;;;;0.00;0.00;;;;;23.30;49.18;100074.16;5015448;28;45969;-78
2023/12/12 10:05:32;;;;;;;;;0.75;0.75;;;;;23.15;48.68;100062.13;5016053;28;46206;-78
2023/12/12 10:07:59;;;;;;;;;0.50;0.50;;;;;23.37;48.97;100081.50;5015619;28;45399;-79
2023/12/12 10:10:25;;;;;;;;;2.75;0.00;;;;;23.16;48.71;100074.78;5016128;28;45543;-78
2023/12/12 10:12:50;;;;;;;;;0.00;0.00;;;;;23.09;48.99;100066.38;5014703;28;45313;-79
2023/12/12 10:15:25;;;;;;;;;1.00;1.00;;;;;23.13;48.49;100061.47;5015903;28;45292;-79
2023/12/12 10:17:58;;;;;;;;;1.00;1.00;;;;;23.46;48.55;100065.09;5015248;28;45444;-79
2023/12/12 10:20:26;;;;;;;;;1.00;1.00;;;;;23.21;47.69;100065.06;5015425;28;45677;-78
2023/12/12 10:22:53;;;;;;;;;0.00;0.00;;;;;23.40;47.54;100048.31;4997371;28;47793;-79
2023/12/12 10:25:18;;;;;;;;;2.00;2.00;;;;;23.51;47.25;100057.25;5015603;28;45515;-78
2023/12/12 10:27:44;;;;;;;;;1.00;1.00;;;;;23.34;47.50;100050.88;5015164;28;55151;-78
2023/12/12 10:30:13;;;;;;;;;0.00;0.00;;;;;23.25;47.10;100044.53;5015472;28;45225;-79
2023/12/12 10:32:38;;;;;;;;;0.00;0.00;;;;;23.46;46.82;100048.69;5014931;28;46295;-78
2023/12/12 10:35:04;;;;;;;;;0.75;0.00;;;;;23.43;46.52;100043.53;5015526;28;45266;-79
2023/12/12 10:37:30;;;;;;;;;0.00;0.00;;;;;23.41;46.57;100035.50;5015484;28;45277;-79
2023/12/12 10:39:56;;;;;;;;;0.00;0.00;;;;;23.46;46.55;100041.34;5015395;28;45175;-80
2023/12/12 10:42:22;;;;;;;;;0.00;0.00;;;;;23.45;46.20;100039.63;5015329;28;45306;-78
2023/12/12 10:44:53;;;;;;;;;0.25;0.25;;;;;23.49;45.92;100034.69;5015789;28;45249;-79
2023/12/12 10:47:20;;;;;;;;;0.00;0.00;;;;;23.46;45.97;100037.75;5015462;28;45400;-79
2023/12/12 10:49:49;;;;;;;;;0.25;0.25;;;;;22.93;46.83;100028.06;5015123;28;45632;-79
2023/12/12 10:52:15;;;;;;;;;1.00;1.00;;;;;23.20;46.56;100041.47;4997111;28;46648;-78
2023/12/12 10:54:43;;;;;;;;;1.25;0.00;;;;;22.96;46.66;100042.28;5014943;28;45349;-77
2023/12/12 10:57:10;;;;;;;;;0.50;0.50;;;;;23.26;46.54;100039.94;5015352;28;45334;-79
2023/12/12 10:59:38;;;;;;;;;0.50;0.50;;;;;22.81;47.26;100029.41;5014809;28;45438;-79
2023/12/12 11:02:04;;;;;;;;;0.00;0.00;;;;;23.15;46.76;100012.91;5015202;28;45447;-80
2023/12/12 11:04:30;;;;;;;;;1.00;1.00;;;;;23.46;46.31;100032.28;5014852;28;47008;-79
2023/12/12 11:06:56;;;;;;;;;0.50;0.50;;;;;23.29;45.94;100024.06;5015153;28;45311;-79
2023/12/12 11:09:22;;;;;;;;;1.50;1.50;;;;;22.93;46.84;100015.25;5014946;28;45389;-80
2023/12/12 11:11:52;;;;;;;;;3.75;3.75;;;;;23.33;46.28;100035.50;5015185;28;46056;-78
2023/12/12 11:14:19;;;;;;;;;1.00;1.00;;;;;23.37;46.57;100028.66;5014790;28;45230;-77
2023/12/12 11:16:47;;;;;;;;;1.00;1.00;;;;;23.40;46.40;100015.50;5015136;28;45242;-79
2023/12/12 11:19:16;;;;;;;;;1.00;1.00;;;;;23.03;46.95;100012.38;5014119;28;45329;-79
2023/12/12 11:21:41;;;;;;;;;1.50;1.50;;;;;23.29;46.74;100015.84;5014720;28;45325;-78
2023/12/12 11:24:07;;;;;;;;;1.00;1.00;;;;;23.38;46.33;99995.69;5014523;28;45384;-78
2023/12/12 11:26:34;;;;;;;;;2.50;1.50;;;;;23.38;46.36;99992.94;5015103;28;45732;-78
2023/12/12 11:29:00;;;;;;;;;1.00;1.00;;;;;23.16;46.81;99990.00;5015332;28;45625;-79
2023/12/12 11:31:33;;;;;;;;;1.00;1.00;;;;;23.27;47.35;99992.41;5019266;28;45925;-79
2023/12/12 11:34:09;;;;;;;;;3.00;2.00;;;;;23.42;46.66;100001.66;5014572;28;45372;-78
2023/12/12 11:36:51;;;;;;;;;1.75;1.75;;;;;23.14;47.69;100011.22;5014744;28;45282;-78
2023/12/12 11:39:30;;;;;;;;;2.50;1.00;;;;;22.91;48.17;99997.31;5014495;28;45649;-78
2023/12/12 11:42:02;;;;;;;;;1.00;1.00;;;;;22.20;49.76;99967.69;5014546;28;46434;-79
2023/12/12 11:44:42;;;;;;;;;1.00;1.00;;;;;22.76;49.55;99988.91;5014805;28;45464;-78
2023/12/12 11:47:14;;;;;;;;;2.50;2.50;;;;;22.42;49.73;99966.22;4996580;28;45447;-79
2023/12/12 11:49:41;;;;;;;;;3.00;3.00;;;;;22.71;49.53;99983.06;5014993;28;45272;-80
2023/12/12 11:52:07;;;;;;;;;2.75;2.00;;;;;22.88;49.18;99981.28;5014390;28;45315;-80
2023/12/12 11:54:33;;;;;;;;;3.00;3.00;;;;;23.03;49.05;99979.56;5014559;28;45447;-79
2023/12/12 11:57:00;;;;;;;;;3.00;3.00;;;;;22.82;48.95;99971.84;5014967;28;45270;-79
2023/12/12 11:59:27;;;;;;;;;2.75;1.00;;;;;22.62;48.66;99956.75;5014481;28;45328;-80
2023/12/12 12:01:54;;;;;;;;;3.00;2.00;;;;;22.88;48.98;99970.34;5001600;28;46164;-79
2023/12/12 12:04:21;;;;;;;;;4.25;2.00;;;;;22.40;49.88;99960.06;5014299;28;45316;-79
2023/12/12 12:06:48;;;;;;;;;2.00;2.00;;;;;22.49;49.07;99959.06;5014284;28;45407;-77
2023/12/12 12:09:15;;;;;;;;;3.00;1.00;;;;;22.26;49.33;99956.09;5013883;28;45498;-77
2023/12/12 12:11:45;;;;;;;;;2.25;1.25;;;;;22.62;49.49;99957.59;4997020;28;45981;-78
2023/12/12 12:14:20;;;;;;;;;3.25;1.75;;;;;22.83;49.07;99956.28;5014405;28;45931;-78
2023/12/12 12:16:47;;;;;;;;;1.00;1.00;;;;;22.77;48.85;99930.50;5014452;28;45379;-79
2023/12/12 12:19:30;;;;;;;;;1.00;1.00;;;;;22.93;48.97;99952.41;5013769;28;45377;-78
2023/12/12 12:22:01;;;;;;;;;3.00;3.00;;;;;23.02;48.83;99934.97;5013882;28;46255;-79
2023/12/12 12:24:26;;;;;;;;;5.00;2.00;;;;;22.95;48.66;99924.91;5017287;28;45417;-79
2023/12/12 12:26:52;;;;;;;;;2.00;2.00;;;;;22.98;48.82;99917.19;5014998;28;45356;-78
2023/12/12 12:29:17;;;;;;;;;3.50;2.00;;;;;23.07;48.52;99925.41;5013941;28;45411;-79
2023/12/12 12:31:43;;;;;;;;;3.25;3.25;;;;;22.99;48.56;99902.50;5014037;28;45494;-79
2023/12/12 12:34:24;;;;;;;;;3.00;3.00;;;;;23.00;48.77;99892.41;4998921;28;45323;-79
2023/12/12 12:36:51;;;;;;;;;2.00;2.00;;;;;23.06;49.02;99901.81;5016064;28;45364;-78
2023/12/12 12:39:17;;;;;;;;;3.75;2.00;;;;;22.94;49.00;99887.66;5017328;28;45487;-79
2023/12/12 12:41:46;;;;;;;;;2.00;1.00;;;;;22.95;48.74;99895.69;5017052;28;45351;-80
2023/12/12 12:44:11;;;;;;;;;2.50;2.25;;;;;23.14;48.83;99885.44;4999397;28;45344;-79
2023/12/12 12:46:37;;;;;;;;;1.00;1.00;;;;;22.81;48.40;99874.47;5017362;28;45535;-78
2023/12/12 12:49:03;;;;;;;;;1.50;1.00;;;;;22.98;48.00;99878.91;5017083;28;45421;-80
2023/12/12 12:51:29;;;;;;;;;1.00;1.00;;;;;23.19;47.78;99866.63;5019366;28;45391;-79
2023/12/12 12:53:55;;;;;;;;;3.75;0.75;;;;;23.29;47.56;99879.09;5028038;28;45319;-78
2023/12/12 12:56:20;;;;;;;;;1.00;1.00;;;;;23.16;47.45;99865.06;5017005;28;45470;-79
2023/12/12 12:58:45;;;;;;;;;1.50;1.25;;;;;23.10;47.66;99873.97;5017162;28;45444;-79
2023/12/12 13:01:11;;;;;;;;;1.75;1.75;;;;;23.06;47.24;99858.06;4998832;28;48514;-80
2023/12/12 13:03:36;;;;;;;;;1.00;1.00;;;;;23.26;47.46;99832.06;5017212;28;45448;-80
2023/12/12 13:06:01;;;;;;;;;1.50;1.00;;;;;23.17;46.55;99855.84;5017108;28;45277;-83
2023/12/12 13:08:27;;;;;;;;;1.00;1.00;;;;;23.15;46.44;99830.53;5017098;28;45316;-78
2023/12/12 13:10:52;;;;;;;;;2.00;1.00;;;;;23.40;46.58;99837.66;5016943;28;45232;-75
2023/12/12 13:13:18;;;;;;;;;1.00;1.00;;;;;23.38;46.35;99849.84;5017911;28;45313;-77
2023/12/12 13:15:44;;;;;;;;;1.00;1.00;;;;;22.92;46.99;99849.53;5017118;28;45392;-77
2023/12/12 13:18:09;;;;;;;;;0.00;0.00;;;;;22.71;47.13;99827.31;5016814;28;45326;-74
2023/12/12 13:20:35;;;;;;;;;0.00;0.00;;;;;22.76;47.21;99838.63;5016906;28;46020;-77
2023/12/12 13:23:00;;;;;;;;;1.00;1.00;;;;;22.77;47.44;99815.72;4998895;28;45263;-76
2023/12/12 13:25:25;;;;;;;;;0.50;0.50;;;;;22.76;46.74;99822.22;5016980;28;45444;-76
2023/12/12 13:27:51;;;;;;;;;1.00;1.00;;;;;22.52;47.73;99817.56;5016561;28;50626;-75
2023/12/12 13:30:16;;;;;;;;;1.00;0.00;;;;;22.62;47.62;99826.47;5016303;28;55985;-77
2023/12/12 13:32:43;;;;;;;;;1.00;1.00;;;;;22.65;47.52;99819.78;5016059;28;45440;-77
2023/12/12 13:35:14;;;;;;;;;1.00;1.00;;;;;22.43;47.45;99804.06;4999021;28;45409;-75
2023/12/12 13:37:39;;;;;;;;;1.00;1.00;;;;;22.81;47.67;99808.03;5016333;28;45183;-76
2023/12/12 13:40:06;;;;;;;;;1.00;1.00;;;;;22.40;48.13;99801.66;5016325;28;45977;-76
2023/12/12 13:42:33;;;;;;;;;1.25;1.00;;;;;22.57;47.88;99806.97;4998767;28;45332;-76
2023/12/12 13:44:58;;;;;;;;;1.00;1.00;;;;;22.59;47.88;99818.59;5017396;28;45836;-75
2023/12/12 13:47:27;;;;;;;;;0.50;0.50;;;;;22.83;47.29;99800.50;5027986;28;45560;-76
2023/12/12 13:49:53;;;;;;;;;2.00;1.00;;;;;22.91;47.40;99797.78;5016334;28;45260;-75
2023/12/12 13:52:19;;;;;;;;;0.25;0.00;;;;;22.83;47.26;99797.78;5016390;28;45297;-75
2023/12/12 13:54:44;;;;;;;;;1.00;1.00;;;;;22.71;47.56;99796.41;5016042;28;46078;-75
2023/12/12 13:57:10;;;;;;;;;3.25;1.00;;;;;23.09;47.01;99789.38;5016423;28;45726;-75
2023/12/12 13:59:35;;;;;;;;;0.50;0.50;;;;;22.39;47.91;99794.50;5015769;28;45901;-76
2023/12/12 14:02:01;;;;;;;;;0.00;0.00;;;;;22.92;46.96;99786.66;5016100;28;45372;-76
2023/12/12 14:04:26;;;;;;;;;1.25;1.00;;;;;23.25;46.96;99779.25;4998227;28;45516;-76
2023/12/12 14:06:52;;;;;;;;;1.00;1.00;;;;;23.33;46.56;99771.03;5016043;28;45557;-77
2023/12/12 14:09:17;;;;;;;;;2.25;1.00;;;;;23.32;46.41;99769.31;5015689;28;45356;-77
2023/12/12 14:11:42;;;;;;;;;0.00;0.00;;;;;23.23;46.61;99755.84;5016200;28;45404;-76
2023/12/12 14:14:09;;;;;;;;;1.75;1.75;;;;;23.34;46.66;99759.06;5016067;28;45329;-76
2023/12/12 14:16:34;;;;;;;;;2.00;2.00;;;;;23.51;46.27;99761.75;5015789;28;45538;-77
2023/12/12 14:18:59;;;;;;;;;1.50;1.00;;;;;23.47;46.03;99753.03;5015001;28;46255;-77
2023/12/12 14:21:25;;;;;;;;;3.00;1.25;;;;;23.56;46.19;99759.38;5015895;28;55169;-75
2023/12/12 14:23:50;;;;;;;;;4.50;1.00;;;;;23.42;46.31;99738.16;5015736;28;45339;-75
2023/12/12 14:26:17;;;;;;;;;2.25;0.50;;;;;23.62;45.95;99754.03;5015247;28;60592;-76
2023/12/12 14:28:47;;;;;;;;;3.00;2.00;;;;;23.73;45.40;99731.72;5015091;28;46032;-77
2023/12/12 14:31:12;;;;;;;;;2.25;1.75;;;;;24.06;45.16;99740.63;5015270;28;45360;-76
2023/12/12 14:33:38;;;;;;;;;1.50;1.50;;;;;23.98;44.83;99734.34;5015376;28;45356;-78
2023/12/12 14:36:04;;;;;;;;;3.75;1.00;;;;;24.24;44.34;99748.56;5015461;28;45674;-76
2023/12/12 14:38:29;;;;;;;;;1.50;1.50;;;;;24.13;44.45;99743.47;4997274;28;46108;-76
2023/12/12 14:40:55;;;;;;;;;1.00;1.00;;;;;23.94;44.71;99738.47;5015429;28;46671;-76
2023/12/12 14:43:21;;;;;;;;;1.00;1.00;;;;;23.88;44.85;99733.72;5015687;28;45603;-75
2023/12/12 14:45:46;;;;;;;;;1.50;1.00;;;;;23.87;44.76;99730.13;5015337;28;45538;-76
2023/12/12 14:48:14;;;;;;;;;1.00;1.00;;;;;23.82;44.53;99718.00;5016249;28;49203;-77
2023/12/12 14:50:42;;;;;;;;;1.00;1.00;;;;;23.80;44.41;99722.81;5027267;28;45221;-77
2023/12/12 14:53:07;;;;;;;;;1.50;1.50;;;;;23.47;45.54;99727.56;5015173;28;45459;-77
2023/12/12 14:55:33;;;;;;;;;3.50;1.00;;;;;23.27;45.68;99691.56;5015309;28;45667;-77
2023/12/12 14:57:58;;;;;;;;;2.00;1.25;;;;;22.95;45.81;99726.19;5014994;28;45448;-76
2023/12/12 15:00:25;;;;;;;;;0.00;0.00;;;;;23.08;45.62;99725.63;5014801;28;45348;-76
2023/12/12 15:02:50;;;;;;;;;3.50;2.00;;;;;22.90;45.44;99735.94;5003101;28;45453;-75
2023/12/12 15:05:16;;;;;;;;;2.75;1.00;;;;;22.84;45.14;99728.44;5026119;28;45353;-75
2023/12/12 15:07:43;;;;;;;;;3.00;1.00;;;;;22.89;45.24;99739.69;5019883;28;45958;-75
2023/12/12 15:10:08;;;;;;;;;2.00;1.00;;;;;22.88;45.09;99733.38;5015329;28;45359;-74
2023/12/12 15:12:34;;;;;;;;;5.50;0.50;;;;;22.96;44.63;99740.72;5014931;28;45166;-75
2023/12/12 15:15:00;;;;;;;;;0.00;0.00;;;;;22.75;45.29;99734.94;5015194;28;45542;-75
2023/12/12 15:17:25;;;;;;;;;3.25;0.25;;;;;22.85;45.02;99727.41;5014559;28;48174;-75
2023/12/12 15:19:50;;;;;;;;;3.00;1.50;;;;;22.95;45.07;99728.94;4996958;28;55520;-75
2023/12/12 15:22:16;;;;;;;;;2.75;1.25;;;;;22.68;45.09;99748.41;5015034;28;45567;-76
2023/12/12 15:24:42;;;;;;;;;3.75;1.00;;;;;22.80;45.21;99733.38;5015080;28;45401;-76
2023/12/12 15:27:09;;;;;;;;;1.00;1.00;;;;;22.87;44.78;99745.34;5014869;28;46188;-74
2023/12/12 15:29:35;;;;;;;;;1.50;1.00;;;;;22.69;45.36;99744.66;5015185;28;45380;-79
2023/12/12 15:32:02;;;;;;;;;2.75;1.50;;;;;22.37;45.47;99750.94;5014394;28;45465;-82
2023/12/12 15:34:27;;;;;;;;;1.00;1.00;;;;;22.38;45.67;99754.53;5014859;28;45522;-79
2023/12/12 15:36:53;;;;;;;;;0.00;0.00;;;;;22.47;45.45;99748.91;5014240;28;45476;-75
2023/12/12 15:39:18;;;;;;;;;3.25;1.00;;;;;22.62;45.25;99744.50;5014736;28;45269;-77
2023/12/12 15:41:43;;;;;;;;;1.50;1.50;;;;;22.24;46.16;99753.34;5014884;28;45290;-77
2023/12/12 15:44:09;;;;;;;;;2.75;1.75;;;;;22.45;45.35;99744.66;5014911;28;45214;-78
2023/12/12 15:46:34;;;;;;;;;2.00;1.75;;;;;22.26;45.28;99745.84;5014449;28;45456;-75
2023/12/12 15:48:59;;;;;;;;;1.50;1.50;;;;;22.13;45.42;99727.22;5014616;28;45309;-78
2023/12/12 15:51:27;;;;;;;;;3.00;1.00;;;;;22.10;45.46;99733.03;5014587;28;45344;-77
2023/12/12 15:53:54;;;;;;;;;1.00;1.00;;;;;22.29;45.15;99720.91;4996545;28;47181;-81
2023/12/12 15:56:20;;;;;;;;;0.75;0.75;;;;;22.16;45.62;99718.69;5014385;28;46108;-76
2023/12/12 15:58:47;;;;;;;;;1.75;1.75;;;;;22.31;45.24;99718.88;5014378;28;45440;-75
2023/12/12 16:01:14;;;;;;;;;4.50;2.75;;;;;22.25;45.52;99714.97;4996449;28;45326;-81
2023/12/12 16:03:42;;;;;;;;;1.00;0.00;;;;;21.90;46.09;99715.22;5013827;28;45345;-78
2023/12/12 16:06:08;;;;;;;;;3.00;3.00;;;;;22.14;45.46;99720.75;5014341;28;46249;-81
2023/12/12 16:08:34;;;;;;;;;1.75;1.75;;;;;22.28;45.24;99713.78;5014227;28;45594;-78
2023/12/12 16:10:59;;;;;;;;;4.25;1.00;;;;;22.15;45.69;99705.22;5015750;28;45324;-78
2023/12/12 16:13:26;;;;;;;;;1.75;1.75;;;;;22.09;45.18;99676.72;5019211;28;45550;-84
2023/12/12 16:15:51;;;;;;;;;4.00;1.00;;;;;22.33;45.17;99711.38;5018454;28;45537;-80
2023/12/12 16:18:17;;;;;;;;;2.25;2.00;;;;;22.21;45.66;99690.88;5017757;28;45274;-76
2023/12/12 16:20:42;;;;;;;;;2.25;2.00;;;;;22.36;45.40;99699.25;5000025;28;45261;-76
2023/12/12 16:23:09;;;;;;;;;6.25;3.00;;;;;22.32;45.63;99706.94;4999116;28;58922;-76
2023/12/12 16:25:35;;;;;;;;;6.00;1.00;;;;;22.08;45.97;99699.59;5016753;28;45416;-82
2023/12/12 16:28:01;;;;;;;;;4.00;2.00;;;;;22.38;45.42;99694.47;5007016;28;45296;-81
2023/12/12 16:30:27;;;;;;;;;2.00;2.00;;;;;22.15;46.13;99699.75;5018274;28;45357;-77
2023/12/12 16:32:56;;;;;;;;;3.25;1.75;;;;;22.06;46.79;99660.69;5025407;28;45444;-79
2023/12/12 16:35:25;;;;;;;;;3.25;2.00;;;;;22.52;46.24;99661.84;5027760;28;46248;-75
2023/12/12 16:37:50;;;;;;;;;1.75;1.75;;;;;22.14;45.54;99657.94;5026919;28;45206;-78
2023/12/12 16:40:15;;;;;;;;;2.75;1.00;;;;;22.24;45.48;99669.56;5018257;28;45503;-77
2023/12/12 16:42:42;;;;;;;;;1.00;1.00;;;;;21.98;45.21;99659.81;5017294;28;47966;-81
2023/12/12 16:45:13;;;;;;;;;3.00;2.00;;;;;21.67;45.51;99673.22;5017519;28;45329;-77
2023/12/12 16:47:38;;;;;;;;;1.00;1.00;;;;;21.96;44.94;99680.94;5015960;28;45488;-77
2023/12/12 16:50:04;;;;;;;;;6.00;0.50;;;;;22.03;44.61;99682.84;5017520;28;45829;-76
2023/12/12 16:52:30;;;;;;;;;0.25;0.00;;;;;21.83;44.62;99674.13;5017563;28;45519;-77
2023/12/12 16:54:55;;;;;;;;;1.00;1.00;;;;;21.92;44.56;99685.91;5016210;28;46112;-78